Time;durP1;ratioP1;P1;durP2;ratioP2;P2;SDS_P1;SDS_P2;PMS_P1;PMS_P2;Temp;Humidity;BMP_temperature;BMP_pressure;BME280_temperature;BME280_humidity;BME280_pressure;Samples;Min_cycle;Max_cycle;Signal;HPM_P1;HPM_P2
2021/10/01 00:01:31;;;;;;;0.63;0.52;;;;;;;14.05;81.44;101358.56;5024712;28;20989;-63
2021/10/01 00:03:57;;;;;;;2.80;0.68;;;;;;;14.03;80.68;101360.84;5030153;28;20030;-64
2021/10/01 00:06:22;;;;;;;0.70;0.60;;;;;;;14.02;80.12;101359.28;5028805;28;20492;-63
2021/10/01 00:08:48;;;;;;;0.82;0.60;;;;;;;14.03;80.51;101351.97;5011302;28;20041;-63
2021/10/01 00:11:13;;;;;;;1.30;0.60;;;;;;;14.04;79.95;101356.22;5022067;28;20120;-64
2021/10/01 00:13:39;;;;;;;0.70;0.60;;;;;;;14.02;80.55;101345.75;5036891;28;20030;-63
2021/10/01 00:16:05;;;;;;;0.80;0.65;;;;;;;14.00;80.75;101350.75;5025066;28;20044;-63
2021/10/01 00:18:30;;;;;;;0.95;0.60;;;;;;;14.09;80.57;101339.69;5027720;28;20494;-64
2021/10/01 00:20:58;;;;;;;1.70;0.70;;;;;;;14.08;80.62;101347.03;5038416;28;20095;-63
2021/10/01 00:23:24;;;;;;;4.22;0.60;;;;;;;14.08;79.92;101333.47;5028056;28;20398;-63
2021/10/01 00:25:50;;;;;;;0.68;0.60;;;;;;;14.10;79.84;101343.94;5042445;28;20043;-65
2021/10/01 00:28:15;;;;;;;1.38;0.55;;;;;;;14.11;79.48;101338.16;5020367;28;20112;-63
2021/10/01 00:30:40;;;;;;;1.98;0.70;;;;;;;13.98;79.97;101325.16;5009099;28;20129;-63
2021/10/01 00:33:06;;;;;;;1.75;0.70;;;;;;;13.98;80.29;101325.94;5024855;28;20432;-65
2021/10/01 00:35:32;;;;;;;4.22;0.73;;;;;;;13.98;80.32;101323.25;5037338;28;20041;-63
2021/10/01 00:37:59;;;;;;;1.15;0.70;;;;;;;14.03;79.66;101324.88;5013657;28;20026;-63
2021/10/01 00:40:25;;;;;;;1.77;0.50;;;;;;;14.00;79.76;101320.16;5033381;28;20038;-63
2021/10/01 00:42:51;;;;;;;0.65;0.60;;;;;;;13.93;79.64;101315.44;5032046;28;20084;-64
2021/10/01 00:45:17;;;;;;;2.45;0.60;;;;;;;14.03;79.63;101312.09;5027248;28;20056;-64
2021/10/01 00:47:44;;;;;;;4.70;0.70;;;;;;;14.07;79.36;101302.09;5024301;28;20030;-63
2021/10/01 00:50:09;;;;;;;1.80;0.60;;;;;;;14.09;79.23;101297.09;5032067;28;20040;-63
2021/10/01 00:52:35;;;;;;;1.73;0.57;;;;;;;13.96;79.77;101298.44;5013142;28;20449;-63
2021/10/01 00:55:02;;;;;;;2.55;0.40;;;;;;;14.05;78.76;101298.97;5032135;28;20041;-64
2021/10/01 00:57:28;;;;;;;0.85;0.68;;;;;;;14.03;78.80;101295.84;5010212;28;20088;-63
2021/10/01 00:59:53;;;;;;;3.60;0.50;;;;;;;14.01;79.32;101289.25;5042082;28;20409;-63
2021/10/01 01:02:19;;;;;;;2.40;1.02;;;;;;;14.01;79.01;101289.25;5031662;28;20442;-63
2021/10/01 01:04:45;;;;;;;0.85;0.60;;;;;;;13.93;78.66;101285.63;5018912;28;20029;-63
2021/10/01 01:07:42;;;;;;;3.95;0.70;;;;;;;13.88;80.21;101296.75;5026068;28;20028;-63
2021/10/01 01:10:17;;;;;;;0.57;0.50;;;;;;;13.87;80.52;101286.28;5026739;28;20083;-64
2021/10/01 01:13:09;;;;;;;2.55;0.75;;;;;;;13.88;80.26;101282.44;5018479;28;20065;-64
2021/10/01 01:15:41;;;;;;;1.77;0.73;;;;;;;13.83;80.20;101286.22;5010187;28;20403;-63
2021/10/01 01:18:23;;;;;;;1.30;0.47;;;;;;;13.90;79.99;101291.00;5012845;28;20085;-63
2021/10/01 01:20:50;;;;;;;1.63;0.70;;;;;;;13.91;80.78;101274.38;5038260;28;20065;-63
2021/10/01 01:23:34;;;;;;;0.40;0.40;;;;;;;13.96;80.78;101273.28;5011291;28;20064;-64
2021/10/01 01:26:15;;;;;;;0.65;0.60;;;;;;;13.87;80.50;101273.53;5016675;28;20653;-64
2021/10/01 01:28:59;;;;;;;2.88;0.60;;;;;;;13.89;80.78;101282.09;5016894;28;20046;-64
2021/10/01 01:31:41;;;;;;;1.30;0.77;;;;;;;13.90;80.04;101283.63;5013750;28;20033;-63
2021/10/01 01:34:09;;;;;;;2.95;0.70;;;;;;;13.86;80.02;101279.31;5012618;28;20482;-64
2021/10/01 01:36:36;;;;;;;1.75;0.50;;;;;;;13.86;79.72;101274.66;5034326;28;20096;-64
2021/10/01 01:39:05;;;;;;;1.42;0.98;;;;;;;13.85;80.35;101277.75;5022788;28;20039;-63
2021/10/01 01:41:33;;;;;;;1.05;0.70;;;;;;;13.82;79.53;101278.47;5007085;28;20398;-64
2021/10/01 01:44:01;;;;;;;1.52;0.55;;;;;;;13.84;80.18;101274.25;5030861;28;20052;-65
2021/10/01 01:46:27;;;;;;;0.50;0.50;;;;;;;13.89;79.19;101273.16;4998902;28;20037;-63
2021/10/01 01:49:03;;;;;;;0.55;0.47;;;;;;;13.86;78.55;101263.84;5008411;28;20111;-64
2021/10/01 01:51:30;;;;;;;2.90;0.98;;;;;;;13.85;79.11;101267.69;5014714;28;20073;-64
2021/10/01 01:53:56;;;;;;;2.15;0.40;;;;;;;13.82;78.95;101262.22;5013775;28;20026;-63
2021/10/01 01:56:24;;;;;;;0.80;0.50;;;;;;;13.76;78.73;101264.47;5010891;28;20157;-64
2021/10/01 01:58:50;;;;;;;2.28;0.77;;;;;;;13.73;78.92;101257.03;5000862;28;20033;-63
2021/10/01 02:01:20;;;;;;;1.13;0.70;;;;;;;13.84;78.67;101257.25;5024938;28;20036;-64
2021/10/01 02:04:14;;;;;;;0.77;0.60;;;;;;;13.85;78.97;101251.47;5026077;28;20164;-64
2021/10/01 02:06:41;;;;;;;1.08;0.68;;;;;;;13.85;78.64;101251.47;5012538;28;20037;-64
2021/10/01 02:09:10;;;;;;;0.75;0.47;;;;;;;13.87;79.26;101241.03;5016496;28;20048;-64
2021/10/01 02:11:40;;;;;;;0.50;0.45;;;;;;;13.91;78.63;101247.31;5014305;28;20112;-64
2021/10/01 02:14:07;;;;;;;2.17;0.40;;;;;;;13.93;78.71;101239.59;5011807;28;20026;-64
2021/10/01 02:16:33;;;;;;;1.35;0.50;;;;;;;13.94;78.30;101238.44;5008930;28;20037;-65
2021/10/01 02:19:00;;;;;;;0.55;0.50;;;;;;;13.92;77.97;101235.31;5028283;28;20094;-65
2021/10/01 02:21:28;;;;;;;3.22;0.68;;;;;;;13.93;78.75;101231.47;5006099;28;20079;-65
2021/10/01 02:23:54;;;;;;;0.88;0.47;;;;;;;13.97;78.64;101228.81;5032647;28;20032;-64
2021/10/01 02:26:35;;;;;;;0.63;0.40;;;;;;;14.00;77.93;101225.38;5013173;28;20032;-64
2021/10/01 02:29:10;;;;;;;1.35;0.60;;;;;;;13.96;77.73;101222.63;5015218;28;20037;-64
2021/10/01 02:32:13;;;;;;;0.43;0.43;;;;;;;13.86;78.77;101219.75;5017185;28;20040;-64
2021/10/01 02:34:42;;;;;;;0.47;0.47;;;;;;;13.88;78.39;101210.09;5005770;28;20037;-64
2021/10/01 02:37:16;;;;;;;1.95;0.52;;;;;;;13.90;78.66;101212.47;4992999;28;20494;-64
2021/10/01 02:39:45;;;;;;;1.30;0.40;;;;;;;13.89;78.70;101206.25;5010831;28;20234;-64
2021/10/01 02:42:12;;;;;;;0.30;0.30;;;;;;;13.85;78.76;101212.75;5010116;28;20446;-65
2021/10/01 02:44:40;;;;;;;2.90;0.65;;;;;;;13.89;78.78;101206.25;5027760;28;20030;-64
2021/10/01 02:47:07;;;;;;;2.83;0.40;;;;;;;13.89;78.43;101198.16;5008126;28;20017;-64
2021/10/01 02:49:34;;;;;;;3.63;0.60;;;;;;;13.78;78.60;101193.69;5010876;28;20112;-64
2021/10/01 02:52:12;;;;;;;1.90;0.40;;;;;;;13.80;78.85;101200.31;5011904;28;20045;-64
2021/10/01 02:55:30;;;;;;;0.95;0.40;;;;;;;13.78;77.79;101183.63;5009453;28;20023;-64
2021/10/01 02:58:03;;;;;;;6.07;0.50;;;;;;;13.71;78.78;101186.25;4970850;28;20501;-64
2021/10/01 03:00:30;;;;;;;0.68;0.50;;;;;;;13.66;78.72;101183.06;5016669;28;20037;-64
2021/10/01 03:02:57;;;;;;;3.15;0.55;;;;;;;13.69;78.77;101188.53;5032870;28;20033;-64
2021/10/01 03:05:26;;;;;;;0.73;0.50;;;;;;;13.70;78.84;101187.41;5005844;28;20398;-64
2021/10/01 03:07:54;;;;;;;1.05;0.70;;;;;;;13.76;78.51;101185.16;5026998;28;20036;-65
2021/10/01 03:10:22;;;;;;;3.55;0.43;;;;;;;13.77;78.07;101187.50;5012048;28;20421;-64
2021/10/01 03:12:48;;;;;;;0.60;0.43;;;;;;;13.77;78.11;101178.59;5025052;28;20714;-64
2021/10/01 03:15:15;;;;;;;0.95;0.47;;;;;;;13.80;78.48;101175.19;5016443;28;20155;-64
2021/10/01 03:17:46;;;;;;;1.02;0.47;;;;;;;13.72;78.46;101178.91;5003285;28;20033;-65
2021/10/01 03:20:13;;;;;;;1.48;0.60;;;;;;;13.73;78.57;101180.47;5005690;28;20040;-64
2021/10/01 03:22:40;;;;;;;1.85;0.68;;;;;;;13.74;77.90;101163.09;5015764;28;20044;-64
2021/10/01 03:25:06;;;;;;;1.13;0.47;;;;;;;13.78;78.43;101163.94;5012003;28;20025;-65
2021/10/01 03:27:33;;;;;;;0.50;0.50;;;;;;;13.68;78.49;101175.34;5000270;28;20125;-64
2021/10/01 03:30:00;;;;;;;1.30;0.40;;;;;;;13.71;78.53;101163.78;5002064;28;20033;-64
2021/10/01 03:32:26;;;;;;;2.35;0.55;;;;;;;13.70;78.41;101171.16;5023191;28;20037;-64
2021/10/01 03:34:55;;;;;;;1.42;0.45;;;;;;;13.74;77.98;101166.59;5002924;28;20088;-64
2021/10/01 03:37:21;;;;;;;0.47;0.40;;;;;;;13.72;77.80;101176.19;5021032;28;20033;-64
2021/10/01 03:39:57;;;;;;;1.67;0.45;;;;;;;13.68;78.16;101173.44;5012721;28;20464;-64
2021/10/01 03:42:23;;;;;;;1.00;0.50;;;;;;;13.72;77.92;101168.09;5013872;28;20088;-64
2021/10/01 03:44:50;;;;;;;1.65;0.50;;;;;;;13.64;78.31;101161.78;5012921;28;20071;-65
2021/10/01 03:47:18;;;;;;;0.45;0.40;;;;;;;13.66;78.59;101151.38;5017519;28;20040;-64
2021/10/01 03:49:43;;;;;;;2.55;0.50;;;;;;;13.65;78.23;101157.91;5012752;28;20032;-64
2021/10/01 03:52:11;;;;;;;1.23;0.40;;;;;;;13.56;78.08;101152.75;5024453;28;20046;-63
2021/10/01 03:54:42;;;;;;;0.63;0.47;;;;;;;13.51;78.60;101149.59;5013244;28;20025;-64
2021/10/01 03:57:08;;;;;;;0.73;0.52;;;;;;;13.43;79.31;101140.53;5012151;28;20026;-64
2021/10/01 03:59:33;;;;;;;1.13;0.50;;;;;;;13.44;79.27;101141.34;5007005;28;20546;-64
2021/10/01 04:02:00;;;;;;;0.43;0.40;;;;;;;13.41;79.52;101142.06;5014322;28;20032;-64
2021/10/01 04:04:25;;;;;;;0.77;0.50;;;;;;;13.43;79.48;101142.50;5032821;28;20471;-64
2021/10/01 04:06:52;;;;;;;1.00;0.50;;;;;;;13.45;78.72;101140.22;5025096;28;20034;-66
2021/10/01 04:09:18;;;;;;;1.08;0.40;;;;;;;13.44;78.99;101144.81;5003260;28;20557;-69
2021/10/01 04:11:45;;;;;;;1.77;0.47;;;;;;;13.44;79.48;101146.75;4989474;28;20041;-65
2021/10/01 04:14:11;;;;;;;1.88;1.13;;;;;;;13.45;79.04;101149.09;4989949;28;20893;-64
2021/10/01 04:16:36;;;;;;;0.70;0.60;;;;;;;13.44;78.69;101147.53;5007552;28;20040;-65
2021/10/01 04:19:02;;;;;;;0.57;0.50;;;;;;;13.41;78.83;101142.06;5013521;28;20048;-65
2021/10/01 04:21:27;;;;;;;1.67;0.45;;;;;;;13.44;79.03;101144.03;5014645;28;20042;-65
2021/10/01 04:23:53;;;;;;;3.45;0.50;;;;;;;13.36;79.55;101140.44;5033532;28;20473;-65
2021/10/01 04:26:36;;;;;;;2.58;0.75;;;;;;;13.34;79.11;101139.22;5008525;28;20521;-65
2021/10/01 04:29:03;;;;;;;2.30;0.30;;;;;;;13.31;79.68;101138.03;5010290;28;20068;-65
2021/10/01 04:31:28;;;;;;;1.48;0.88;;;;;;;13.29;80.24;101142.25;5024516;28;20445;-65
2021/10/01 04:33:54;;;;;;;2.95;0.88;;;;;;;13.29;80.06;101137.63;5025990;28;20029;-65
2021/10/01 04:36:22;;;;;;;0.90;0.60;;;;;;;13.33;79.61;101134.97;5036178;28;20504;-65
2021/10/01 04:38:47;;;;;;;1.27;0.50;;;;;;;13.25;80.52;101141.41;5029587;28;20021;-64
2021/10/01 04:41:13;;;;;;;2.40;0.88;;;;;;;13.21;79.97;101129.72;5025057;28;20090;-65
2021/10/01 04:43:40;;;;;;;0.52;0.32;;;;;;;13.16;80.18;101135.44;5012807;28;20058;-65
2021/10/01 04:46:24;;;;;;;2.15;0.50;;;;;;;13.22;80.11;101128.59;5034868;28;20060;-65
2021/10/01 04:48:52;;;;;;;0.98;0.60;;;;;;;13.17;80.68;101123.47;4993791;28;20044;-65
2021/10/01 04:51:23;;;;;;;0.40;0.40;;;;;;;13.12;80.65;101134.59;5006564;28;20087;-66
2021/10/01 04:53:49;;;;;;;1.02;0.40;;;;;;;13.15;80.15;101128.47;5009618;28;20478;-65
2021/10/01 04:56:14;;;;;;;0.50;0.50;;;;;;;13.13;81.10;101126.13;5013774;28;20030;-65
2021/10/01 04:58:40;;;;;;;0.50;0.40;;;;;;;13.18;81.27;101130.47;5007901;28;20071;-64
2021/10/01 05:01:24;;;;;;;0.38;0.38;;;;;;;13.21;80.84;101125.13;5031487;22;20052;-65
2021/10/01 05:04:16;;;;;;;3.60;0.57;;;;;;;13.17;81.00;101134.28;4960352;28;20046;-65
2021/10/01 05:06:42;;;;;;;0.60;0.50;;;;;;;13.23;81.11;101130.94;4983070;28;20093;-65
2021/10/01 05:09:43;;;;;;;2.47;0.70;;;;;;;13.24;80.22;101129.03;4923825;29;20036;-64
2021/10/01 05:12:27;;;;;;;0.73;0.52;;;;;;;13.23;80.87;101139.06;4981617;28;20065;-64
2021/10/01 05:15:12;;;;;;;1.50;0.70;;;;;;;13.19;80.45;101126.59;4988096;28;20114;-64
2021/10/01 05:17:58;;;;;;;3.33;0.93;;;;;;;13.23;80.59;101143.69;4985659;28;20124;-65
2021/10/01 05:20:43;;;;;;;0.80;0.60;;;;;;;13.21;80.83;101148.66;4981124;28;20173;-65
2021/10/01 05:23:42;;;;;;;4.00;0.60;;;;;;;13.27;80.93;101148.03;4970693;28;20022;-65
2021/10/01 05:26:08;;;;;;;1.35;0.77;;;;;;;13.30;81.08;101147.28;4971882;28;20042;-66
2021/10/01 05:28:33;;;;;;;1.20;0.55;;;;;;;13.36;80.21;101147.75;4965653;28;20077;-65
2021/10/01 05:30:59;;;;;;;2.65;0.52;;;;;;;13.35;79.70;101149.72;4985830;28;20101;-66
2021/10/01 05:33:25;;;;;;;2.67;0.70;;;;;;;13.30;80.45;101154.59;4969392;28;20038;-65
2021/10/01 05:35:50;;;;;;;0.90;0.60;;;;;;;13.31;80.50;101153.47;4982943;28;20054;-65
2021/10/01 05:38:16;;;;;;;0.88;0.40;;;;;;;13.29;80.70;101148.44;4981379;28;20034;-65
2021/10/01 05:40:42;;;;;;;1.25;0.80;;;;;;;13.30;80.62;101154.59;4967163;28;20474;-66
2021/10/01 05:43:08;;;;;;;1.58;0.82;;;;;;;13.32;80.51;101152.31;4969996;28;20018;-65
2021/10/01 05:45:34;;;;;;;0.60;0.52;;;;;;;13.30;80.32;101144.59;4969028;28;20672;-65
2021/10/01 05:48:27;;;;;;;0.50;0.50;;;;;;;13.31;80.72;101148.88;4955383;28;20046;-65
2021/10/01 05:51:13;;;;;;;2.10;0.55;;;;;;;13.30;81.07;101141.09;4982308;28;20101;-63
2021/10/01 05:56:53;;;;;;;0.82;0.80;;;;;;;13.23;81.85;101139.06;4985546;28;20042;-66
2021/10/01 05:59:25;;;;;;;1.15;0.68;;;;;;;13.17;82.66;101135.09;4983498;28;20098;-65
2021/10/01 06:01:50;;;;;;;0.60;0.50;;;;;;;13.11;83.25;101138.44;4986092;28;20454;-66
2021/10/01 06:04:15;;;;;;;1.55;0.70;;;;;;;13.16;82.79;101130.81;4966373;28;20037;-65
2021/10/01 06:06:41;;;;;;;3.33;0.70;;;;;;;13.15;82.39;101121.13;4987382;28;20030;-64
2021/10/01 06:09:11;;;;;;;2.60;0.60;;;;;;;13.14;82.81;101132.31;4985960;28;20568;-65
2021/10/01 06:11:37;;;;;;;0.93;0.60;;;;;;;13.10;83.79;101124.16;4986072;28;20046;-65
2021/10/01 06:14:07;;;;;;;0.93;0.55;;;;;;;13.10;83.51;101129.56;4966288;28;20049;-65
2021/10/01 06:16:33;;;;;;;2.47;0.65;;;;;;;13.16;82.37;101135.44;4985333;28;20082;-63
2021/10/01 06:19:01;;;;;;;0.93;0.60;;;;;;;13.17;83.24;101139.72;4985220;28;20038;-65
2021/10/01 06:21:27;;;;;;;1.08;0.80;;;;;;;13.17;83.19;101126.19;4982435;28;20142;-65
2021/10/01 06:23:53;;;;;;;1.65;0.65;;;;;;;13.19;83.17;101134.72;4985398;28;20117;-65
2021/10/01 06:26:18;;;;;;;0.85;0.75;;;;;;;13.18;83.08;101130.47;4986093;28;20125;-65
2021/10/01 06:28:44;;;;;;;1.33;0.77;;;;;;;13.16;83.46;101128.09;4979059;28;20161;-64
2021/10/01 06:31:09;;;;;;;1.55;0.75;;;;;;;13.18;83.49;101135.88;4986576;28;20044;-66
2021/10/01 06:33:35;;;;;;;1.30;0.90;;;;;;;13.22;83.29;101129.38;4964863;28;20121;-65
2021/10/01 06:36:01;;;;;;;1.35;0.60;;;;;;;13.29;82.78;101136.84;4985329;28;20030;-65
2021/10/01 06:38:29;;;;;;;2.10;0.70;;;;;;;13.26;83.16;101135.63;4984731;28;20030;-66
2021/10/01 06:40:54;;;;;;;2.22;0.80;;;;;;;13.28;82.86;101132.56;4982832;28;20101;-64
2021/10/01 06:43:20;;;;;;;1.42;0.70;;;;;;;13.25;82.53;101131.38;4983211;28;20034;-65
2021/10/01 06:45:50;;;;;;;2.28;0.70;;;;;;;13.26;82.47;101129.41;4983311;28;20041;-65
2021/10/01 06:48:55;;;;;;;1.13;0.80;;;;;;;13.32;82.53;101131.47;4979808;28;20084;-64
2021/10/01 08:20:26;;;;;;;0.60;0.52;;;;;;;15.12;74.70;101112.19;4974689;28;20123;-65
2021/10/01 08:22:52;;;;;;;3.03;0.70;;;;;;;15.11;74.42;101102.50;4989590;28;20054;-65
2021/10/01 08:25:18;;;;;;;0.63;0.40;;;;;;;15.07;74.68;101105.19;4993570;28;20045;-65
2021/10/01 08:27:43;;;;;;;1.95;0.50;;;;;;;15.08;75.72;101108.66;4984860;28;20031;-64
2021/10/01 08:30:10;;;;;;;1.10;0.50;;;;;;;15.07;75.21;101107.09;4991170;28;20033;-65
2021/10/01 08:32:37;;;;;;;0.45;0.40;;;;;;;15.05;75.38;101120.25;4973466;28;20692;-66
2021/10/01 08:35:24;;;;;;;0.68;0.30;;;;;;;14.97;75.77;101116.72;4992255;28;20443;-66
2021/10/01 08:37:55;;;;;;;1.38;0.40;;;;;;;15.01;76.86;101103.97;4908655;29;20052;-65
2021/10/01 08:40:22;;;;;;;0.70;0.60;;;;;;;15.16;77.19;101105.66;4892384;29;20115;-66
2021/10/01 08:42:49;;;;;;;2.55;0.40;;;;;;;15.22;75.96;101104.16;4895577;29;20064;-64
2021/10/01 08:45:17;;;;;;;1.52;0.70;;;;;;;15.21;75.84;101099.09;4905717;29;20035;-65
2021/10/01 08:47:45;;;;;;;0.68;0.50;;;;;;;15.21;75.71;101099.09;4910218;29;20115;-63
2021/10/01 08:50:14;;;;;;;0.82;0.40;;;;;;;15.35;75.54;101086.41;4912011;29;20562;-65
2021/10/01 08:52:40;;;;;;;0.40;0.40;;;;;;;15.51;74.63;101090.81;4906831;29;20417;-65
2021/10/01 08:55:08;;;;;;;2.35;0.30;;;;;;;15.75;74.25;101084.78;4906255;29;20039;-66
2021/10/01 08:57:34;;;;;;;1.35;0.55;;;;;;;15.94;73.08;101085.31;4909985;29;20115;-65
2021/10/01 09:00:03;;;;;;;0.90;0.47;;;;;;;16.03;73.62;101085.72;4910436;29;20123;-65
2021/10/01 09:02:29;;;;;;;1.45;0.35;;;;;;;16.14;71.24;101083.06;4905285;29;20051;-65
2021/10/01 09:04:55;;;;;;;0.52;0.30;;;;;;;16.30;70.42;101083.50;4903054;29;20040;-66
2021/10/01 09:07:24;;;;;;;1.17;0.50;;;;;;;16.38;68.99;101087.81;4910310;29;20048;-66
2021/10/01 09:09:52;;;;;;;0.85;0.50;;;;;;;16.28;69.01;101080.41;4909430;29;20556;-65
2021/10/01 09:12:18;;;;;;;2.35;0.30;;;;;;;16.35;70.04;101080.44;4906340;29;20445;-65
2021/10/01 09:14:47;;;;;;;0.95;0.40;;;;;;;16.55;68.44;101078.22;4944512;28;20035;-65
2021/10/01 09:17:17;;;;;;;0.30;0.30;;;;;;;16.72;68.63;101075.53;4991355;28;20122;-66
2021/10/01 09:19:45;;;;;;;0.53;0.43;;;;;;;16.88;67.60;101075.16;4989480;28;20181;-66
2021/10/01 09:22:22;;;;;;;0.77;0.30;;;;;;;16.96;66.38;101065.84;4988528;28;20300;-66
2021/10/01 09:24:47;;;;;;;1.13;0.32;;;;;;;17.15;67.35;101062.72;4993388;28;20126;-66
2021/10/01 09:27:13;;;;;;;0.32;0.20;;;;;;;17.38;66.86;101063.09;4967365;28;20113;-66
2021/10/01 09:29:38;;;;;;;0.77;0.30;;;;;;;17.59;65.20;101060.41;4988527;28;20045;-66
2021/10/01 09:32:12;;;;;;;1.75;0.40;;;;;;;17.71;65.80;101068.16;4988384;28;20518;-66
2021/10/01 09:34:43;;;;;;;0.55;0.40;;;;;;;17.81;63.26;101072.81;4989800;28;20523;-65
2021/10/01 09:37:12;;;;;;;0.55;0.30;;;;;;;17.77;64.28;101052.97;4988811;28;20069;-63
2021/10/01 09:39:52;;;;;;;0.50;0.30;;;;;;;17.77;63.04;101050.22;4990860;28;20027;-65
2021/10/01 09:42:20;;;;;;;0.60;0.30;;;;;;;17.85;64.88;101061.88;4991361;28;20046;-65
2021/10/01 09:44:55;;;;;;;0.65;0.40;;;;;;;17.85;65.49;101049.06;4990948;28;20034;-65
2021/10/01 09:47:29;;;;;;;1.20;0.17;;;;;;;17.98;63.99;101055.63;4990457;28;20050;-66
2021/10/01 09:50:07;;;;;;;2.22;0.40;;;;;;;18.07;62.50;101049.75;4995865;28;20400;-65
2021/10/01 09:52:50;;;;;;;0.52;0.43;;;;;;;17.99;61.94;101029.94;4986595;28;20038;-66
2021/10/01 09:55:19;;;;;;;0.30;0.25;;;;;;;17.96;63.75;101038.13;4983704;28;20065;-65
2021/10/01 09:58:12;;;;;;;0.68;0.20;;;;;;;17.99;61.98;101035.38;4987801;28;20058;-65
2021/10/01 10:00:39;;;;;;;0.55;0.22;;;;;;;18.06;62.74;101039.25;4985496;28;20046;-65
2021/10/01 10:03:28;;;;;;;0.63;0.30;;;;;;;18.18;62.18;101036.06;4987780;28;20069;-66
2021/10/01 10:06:10;;;;;;;1.20;0.40;;;;;;;18.38;63.12;101034.41;4987715;28;20030;-65
2021/10/01 10:08:35;;;;;;;;;;;;;;;18.47;62.58;101030.09;4984781;28;20049;-64
2021/10/01 10:11:05;;;;;;;2.13;0.38;;;;;;;18.48;61.18;101036.34;4980147;28;19918;-66
2021/10/01 10:13:45;;;;;;;1.48;0.32;;;;;;;18.45;62.78;101027.00;4992093;28;20038;-65
2021/10/01 10:16:17;;;;;;;1.55;0.47;;;;;;;18.60;62.36;101033.91;4991089;28;20038;-66
2021/10/01 10:18:44;;;;;;;1.30;0.30;;;;;;;18.70;61.96;101030.34;4993862;28;20511;-65
2021/10/01 10:21:10;;;;;;;0.40;0.40;;;;;;;18.77;60.20;101030.31;4975852;28;20034;-64
2021/10/01 10:23:36;;;;;;;1.02;0.40;;;;;;;18.81;59.99;101027.56;4994067;28;20423;-66
2021/10/01 10:26:01;;;;;;;1.60;0.73;;;;;;;18.89;60.65;101027.09;4987013;28;20030;-65
2021/10/01 10:28:27;;;;;;;2.05;0.40;;;;;;;18.91;61.03;101023.97;4986770;28;20113;-65
2021/10/01 10:30:53;;;;;;;4.68;0.32;;;;;;;18.92;60.86;101020.06;4982242;28;20046;-65
2021/10/01 10:33:45;;;;;;;0.95;0.17;;;;;;;19.00;61.14;101016.09;4987973;28;20491;-65
2021/10/01 10:36:26;;;;;;;;;;;;;;;19.05;59.76;101015.66;4990479;28;20046;-66
2021/10/01 10:38:51;;;;;;;0.22;0.20;;;;;;;19.14;58.05;101026.91;4989041;28;19921;-65
2021/10/01 10:41:28;;;;;;;1.75;0.43;;;;;;;19.14;57.71;101020.66;4989295;28;20570;-65
2021/10/01 10:43:55;;;;;;;0.70;0.30;;;;;;;19.13;58.91;101008.97;4990227;28;20042;-65
2021/10/01 10:46:36;;;;;;;1.27;0.43;;;;;;;19.19;59.06;100995.63;4986764;28;20038;-64
2021/10/01 10:49:24;;;;;;;0.30;0.20;;;;;;;19.21;59.47;101004.19;4987103;28;20045;-65
2021/10/01 10:52:04;;;;;;;2.03;0.45;;;;;;;19.31;60.77;100998.66;4984463;28;20045;-65
2021/10/01 10:54:32;;;;;;;0.68;0.30;;;;;;;19.38;59.15;100998.59;4990042;28;20120;-66
2021/10/01 10:57:16;;;;;;;0.20;0.20;;;;;;;19.13;57.00;100992.56;4965478;28;20065;-66
2021/10/01 11:00:03;;;;;;;0.80;0.40;;;;;;;19.18;59.15;100989.38;4986775;28;20038;-65
2021/10/01 11:02:43;;;;;;;3.55;0.43;;;;;;;19.28;58.14;100985.78;5037896;22;20588;-65
2021/10/01 11:05:14;;;;;;;1.45;0.30;;;;;;;19.37;58.29;100988.09;5046922;28;20040;-66
2021/10/01 11:07:50;;;;;;;1.38;0.30;;;;;;;19.25;57.61;100988.56;5048888;28;20278;-64
2021/10/01 11:10:45;;;;;;;1.27;0.50;;;;;;;19.19;59.03;100990.97;5050210;28;20571;-65
2021/10/01 11:13:23;;;;;;;0.30;0.20;;;;;;;19.27;58.95;100983.47;5049245;28;20051;-65
2021/10/01 11:16:23;;;;;;;0.38;0.30;;;;;;;19.37;58.94;100972.47;5041914;28;20101;-65
2021/10/01 11:19:00;;;;;;;1.20;0.40;;;;;;;19.46;58.65;100971.97;4929165;29;20448;-65
2021/10/01 11:21:26;;;;;;;0.35;0.30;;;;;;;19.58;57.46;100969.50;5029195;28;20041;-65
2021/10/01 11:24:20;;;;;;;0.57;0.30;;;;;;;19.73;57.57;100970.88;5046293;28;20031;-65
2021/10/01 11:26:55;;;;;;;0.55;0.30;;;;;;;19.39;57.38;100972.84;5046712;28;20045;-66
2021/10/01 11:29:37;;;;;;;1.00;0.30;;;;;;;19.49;58.12;100961.00;5045877;28;20081;-66
2021/10/01 11:32:20;;;;;;;1.48;0.30;;;;;;;19.43;58.61;100956.41;5040967;28;20401;-65
2021/10/01 11:34:50;;;;;;;0.43;0.10;;;;;;;19.52;57.11;100952.00;5044193;28;20477;-65
2021/10/01 11:37:31;;;;;;;0.28;0.28;;;;;;;19.66;58.31;100956.53;5041293;28;20037;-66
2021/10/01 11:40:06;;;;;;;2.05;0.63;;;;;;;19.76;56.97;100953.66;5040985;28;20037;-64
2021/10/01 11:42:34;;;;;;;0.20;0.20;;;;;;;19.89;56.47;100947.66;5039486;28;20182;-66
2021/10/01 11:45:06;;;;;;;1.35;0.32;;;;;;;19.93;55.99;100953.84;5038774;28;20466;-65
2021/10/01 11:47:31;;;;;;;0.80;0.28;;;;;;;19.92;55.42;100942.13;5042353;28;20416;-65
2021/10/01 11:49:58;;;;;;;0.90;0.40;;;;;;;19.89;56.48;100953.91;5048436;28;20033;-64
2021/10/01 11:52:27;;;;;;;1.20;0.35;;;;;;;19.85;55.48;100941.44;5047817;28;20460;-65
2021/10/01 11:54:54;;;;;;;1.05;0.55;;;;;;;19.75;55.50;100945.88;5038501;28;20022;-65
2021/10/01 11:57:21;;;;;;;1.70;0.30;;;;;;;19.71;56.03;100936.94;5034565;28;20099;-65
2021/10/01 12:00:01;;;;;;;1.50;0.50;;;;;;;19.82;56.73;100934.09;5031866;28;20113;-65
2021/10/01 12:02:41;;;;;;;2.47;0.40;;;;;;;19.89;57.03;100926.56;5034783;28;20060;-64
2021/10/01 12:05:36;;;;;;;1.00;0.30;;;;;;;19.91;57.66;100926.91;5032130;28;20033;-64
2021/10/01 12:08:03;;;;;;;1.77;0.30;;;;;;;20.00;56.66;100913.50;5013799;28;20868;-64
2021/10/01 12:10:32;;;;;;;2.17;0.28;;;;;;;20.15;56.57;100931.25;5037963;28;20406;-64
2021/10/01 12:13:05;;;;;;;1.23;0.50;;;;;;;20.18;55.41;100926.94;5028290;28;20032;-65
2021/10/01 12:15:34;;;;;;;0.22;0.20;;;;;;;19.91;55.72;100920.66;5038489;28;20041;-63
2021/10/01 12:17:59;;;;;;;1.05;0.30;;;;;;;19.83;55.57;100919.22;5040741;28;20083;-63
2021/10/01 12:20:25;;;;;;;0.60;0.30;;;;;;;19.73;55.45;100913.47;5037295;28;20509;-66
2021/10/01 12:22:50;;;;;;;0.70;0.30;;;;;;;19.74;55.18;100914.28;5042184;28;20029;-63
2021/10/01 12:25:24;;;;;;;1.17;0.30;;;;;;;19.75;55.65;100922.03;5041746;28;20028;-63
2021/10/01 12:27:50;;;;;;;0.55;0.20;;;;;;;19.69;54.49;100909.25;5044459;28;20044;-63
2021/10/01 12:30:16;;;;;;;2.80;0.30;;;;;;;19.63;55.13;100897.22;5045604;28;20041;-63
2021/10/01 12:32:42;;;;;;;0.32;0.20;;;;;;;19.70;55.13;100897.13;5040311;28;20110;-64
2021/10/01 12:35:11;;;;;;;1.80;0.43;;;;;;;19.85;55.33;100893.03;5046541;28;20111;-64
2021/10/01 12:37:40;;;;;;;0.38;0.28;;;;;;;20.00;54.87;100894.38;5042512;28;20055;-65
2021/10/01 12:40:07;;;;;;;0.68;0.20;;;;;;;20.11;54.23;100892.25;5046737;28;20799;-63
2021/10/01 12:42:36;;;;;;;1.58;0.20;;;;;;;20.22;55.06;100892.13;5048062;28;20725;-65
2021/10/01 12:45:15;;;;;;;3.53;0.40;;;;;;;20.28;53.95;100890.47;5041942;28;20060;-65
2021/10/01 12:47:43;;;;;;;0.50;0.32;;;;;;;20.14;53.23;100879.72;5019706;28;20479;-64
2021/10/01 12:50:18;;;;;;;0.17;0.13;;;;;;;20.05;53.89;100884.94;5043637;28;20378;-64
2021/10/01 12:52:58;;;;;;;1.02;0.20;;;;;;;19.96;54.90;100879.19;5047136;28;20043;-67
2021/10/01 12:55:24;;;;;;;0.52;0.30;;;;;;;20.08;55.88;100881.34;5039686;28;20025;-65
2021/10/01 12:57:51;;;;;;;0.75;0.22;;;;;;;20.18;56.28;100886.72;5044695;28;20032;-64
2021/10/01 13:00:24;;;;;;;0.17;0.10;;;;;;;20.16;53.30;100888.28;5043717;28;20043;-64
2021/10/01 13:02:52;;;;;;;1.25;0.20;;;;;;;20.10;55.39;100879.75;5042497;28;20492;-64
2021/10/01 13:05:22;;;;;;;1.00;0.40;;;;;;;20.26;54.70;100884.63;5039599;28;20125;-64
2021/10/01 13:07:51;;;;;;;0.30;0.20;;;;;;;20.28;54.10;100877.56;5044199;28;20044;-64
2021/10/01 13:10:43;;;;;;;1.63;0.30;;;;;;;20.29;52.46;100859.16;5044745;28;20423;-64
2021/10/01 13:13:11;;;;;;;;;;;;;;;20.14;53.01;100875.00;5043397;28;20111;-66
2021/10/01 13:15:36;;;;;;;0.73;0.35;;;;;;;20.07;53.07;100877.88;5045318;28;21442;-63
2021/10/01 13:18:33;;;;;;;0.50;0.45;;;;;;;19.77;53.29;100875.94;5040516;28;20039;-64